This is the latest recevied weather packets stored in our database for station/object KF0PEC-13. If no packets are shown the sender has not sent any weather packets the latest 10 day(s).
| Time | Temp. | Humidity | Pressure | Rain* | Wind** | Luminosity | Snow |
|---|---|---|---|---|---|---|---|
| 1777115717 | 1.67° C | 75% | 1011.7 hPa | 0 mm | - | - | - |
| 1777113322 | 2.78° C | 72% | 1011.7 hPa | 0 mm | - | - | - |
| 1777111530 | 3.33° C | 66% | 1011.3 hPa | 0 mm | - | - | - |
| 1777102525 | 6.11° C | 55% | 1011.1 hPa | 0 mm | - | - | - |
| 1777101921 | 6.11° C | 54% | 1011.1 hPa | 0 mm | - | - | - |
| 1777100130 | 6.67° C | 53% | 1011.2 hPa | 0 mm | - | - | - |
| 1777099526 | 6.67° C | 54% | 1011.2 hPa | 0 mm | - | - | - |
| 1777098962 | 6.67° C | 55% | 1011.2 hPa | 0 mm | - | - | - |
| 1777093528 | 10° C | 39% | 1010.3 hPa | 0 mm | - | - | - |
| 1777092924 | 10.56° C | 37% | 1010.4 hPa | 0 mm | - | - | - |
| 1777084530 | 12.78° C | 20% | 1007.4 hPa | 0 mm | - | - | - |
| 1777074325 | 19.44° C | 10% | 1006.4 hPa | 0 mm | - | - | - |
| 1777071325 | 21.11° C | 9% | 1006.5 hPa | 0 mm | - | - | - |
| 1777063534 | 21.11° C | 13% | 1007.6 hPa | 0 mm | - | - | - |
| 1777062326 | 22.22° C | 11% | 1007.9 hPa | 0 mm | - | - | - |
| 1777061118 | 22.22° C | 11% | 1008.2 hPa | 0 mm | - | - | - |
| 1777060534 | 22.78° C | 11% | 1008.2 hPa | 0 mm | - | - | - |
| 1777058722 | 20.56° C | 13% | 1008.4 hPa | 0 mm | - | - | - |
| 1777058118 | 20° C | 15% | 1008.5 hPa | 0 mm | - | - | - |
| 1777052117 | 16.67° C | 20% | 1011.7 hPa | 0 mm | - | - | - |
| 1777051533 | 17.22° C | 18% | 1012 hPa | 0 mm | - | - | - |
| 1777050325 | 17.22° C | 20% | 1012.2 hPa | 0 mm | - | - | - |
| 1777047930 | 15° C | 22% | 1012.4 hPa | 0 mm | - | - | - |
| 1777046722 | 15° C | 21% | 1012.7 hPa | 0 mm | - | - | - |
| 1777043723 | 13.89° C | 25% | 1013.2 hPa | 0 mm | - | - | - |
* Rain latest hour (hover to see other rain measurements)
** Current wind speed in m/s (hover to see current wind gust speed)